Time;durP1;ratioP1;P1;durP2;ratioP2;P2;SDS_P1;SDS_P2;PMS_P1;PMS_P2;Temp;Humidity;BMP_temperature;BMP_pressure;BME280_temperature;BME280_humidity;BME280_pressure;Samples;Min_cycle;Max_cycle;Signal;HPM_P1;HPM_P2
2022/09/26 00:01:31;;;;;;;2.78;1.45;;;;;;;;;;5074365;28;20093;-78
2022/09/26 00:04:00;;;;;;;2.78;1.30;;;;;;;;;;5055841;28;20052;-78
2022/09/26 00:06:26;;;;;;;2.13;1.20;;;;;;;;;;5056399;28;20097;-79
2022/09/26 00:08:52;;;;;;;1.77;1.20;;;;;;;;;;5055833;28;20419;-78
2022/09/26 00:11:22;;;;;;;3.28;1.73;;;;;;;;;;5055842;28;20476;-78
2022/09/26 00:13:51;;;;;;;1.67;1.20;;;;;;;;;;5039305;28;20032;-79
2022/09/26 00:16:16;;;;;;;2.22;1.27;;;;;;;;;;5038960;28;20024;-79
2022/09/26 00:18:42;;;;;;;1.33;1.23;;;;;;;;;;5055819;28;20025;-79
2022/09/26 00:21:12;;;;;;;1.48;1.10;;;;;;;;;;5055773;28;20036;-79
2022/09/26 00:23:38;;;;;;;2.10;1.30;;;;;;;;;;5039052;28;20428;-78
2022/09/26 00:26:04;;;;;;;3.83;1.10;;;;;;;;;;5055608;28;20063;-78
2022/09/26 00:28:30;;;;;;;2.60;1.10;;;;;;;;;;5055461;28;20373;-79
2022/09/26 00:30:55;;;;;;;3.78;1.20;;;;;;;;;;5055630;28;20021;-79
2022/09/26 00:33:21;;;;;;;2.20;1.10;;;;;;;;;;5038920;28;20033;-79
2022/09/26 00:35:51;;;;;;;2.35;1.17;;;;;;;;;;5054605;28;20442;-79
2022/09/26 00:38:17;;;;;;;5.90;1.63;;;;;;;;;;5055332;28;20050;-79
2022/09/26 00:40:42;;;;;;;3.40;1.23;;;;;;;;;;5038447;28;20111;-79
2022/09/26 00:43:28;;;;;;;1.88;1.10;;;;;;;;;;5038465;28;20055;-79
2022/09/26 00:45:56;;;;;;;2.75;1.30;;;;;;;;;;5054836;28;20036;-79
2022/09/26 00:48:21;;;;;;;4.85;1.35;;;;;;;;;;5055224;28;20020;-79
2022/09/26 00:50:47;;;;;;;3.28;1.33;;;;;;;;;;5038664;28;20039;-79
2022/09/26 00:53:18;;;;;;;1.20;1.00;;;;;;;;;;5055341;28;20078;-79
2022/09/26 00:55:57;;;;;;;1.75;1.10;;;;;;;;;;5055175;28;20464;-79
2022/09/26 00:58:28;;;;;;;1.70;1.13;;;;;;;;;;5038213;28;20025;-79
2022/09/26 01:00:54;;;;;;;3.10;1.23;;;;;;;;;;5055064;28;20054;-78
2022/09/26 01:03:21;;;;;;;0.98;0.93;;;;;;;;;;5054838;28;20045;-78
2022/09/26 01:05:46;;;;;;;2.83;1.30;;;;;;;;;;5055246;28;20047;-78
2022/09/26 01:08:13;;;;;;;3.33;1.23;;;;;;;;;;5054912;28;20103;-78
2022/09/26 01:10:38;;;;;;;2.75;1.30;;;;;;;;;;5054580;28;20479;-79
2022/09/26 01:13:04;;;;;;;3.35;1.25;;;;;;;;;;5055146;28;20028;-80
2022/09/26 01:15:29;;;;;;;2.05;1.20;;;;;;;;;;5054738;28;20029;-79
2022/09/26 01:17:55;;;;;;;1.48;1.05;;;;;;;;;;5072482;28;20028;-79
2022/09/26 01:20:28;;;;;;;1.55;0.95;;;;;;;;;;5072726;28;20029;-79
2022/09/26 01:23:21;;;;;;;3.80;1.00;;;;;;;;;;5054593;28;20035;-78
2022/09/26 01:26:01;;;;;;;2.83;1.17;;;;;;;;;;5054395;28;20037;-79
2022/09/26 01:28:52;;;;;;;4.75;1.30;;;;;;;;;;5054410;28;20028;-79
2022/09/26 01:31:26;;;;;;;3.17;1.02;;;;;;;;;;5054275;28;20457;-79
2022/09/26 01:34:21;;;;;;;1.95;1.17;;;;;;;;;;5054326;28;20130;-78
2022/09/26 01:36:56;;;;;;;3.22;1.00;;;;;;;;;;5037713;28;20032;-78
2022/09/26 01:39:29;;;;;;;1.83;1.05;;;;;;;;;;5054406;28;20025;-79
2022/09/26 01:42:12;;;;;;;2.92;1.10;;;;;;;;;;5054350;28;20028;-79
2022/09/26 01:45:12;;;;;;;1.27;1.00;;;;;;;;;;5037693;28;20117;-78
2022/09/26 01:47:40;;;;;;;1.73;1.20;;;;;;;;;;5027928;28;20070;-78
2022/09/26 01:50:12;;;;;;;1.65;1.13;;;;;;;;;;5076410;28;20085;-78
2022/09/26 01:52:47;;;;;;;1.85;1.00;;;;;;;;;;5076393;28;20169;-79
2022/09/26 01:55:29;;;;;;;2.97;1.00;;;;;;;;;;5058790;28;20044;-77
2022/09/26 01:58:02;;;;;;;3.15;1.30;;;;;;;;;;5058361;28;20085;-78
2022/09/26 02:00:29;;;;;;;2.22;1.20;;;;;;;;;;5058173;28;20028;-78
2022/09/26 02:02:55;;;;;;;1.67;0.90;;;;;;;;;;5041356;28;20057;-78
2022/09/26 02:05:31;;;;;;;5.78;1.38;;;;;;;;;;5041509;28;20024;-78
2022/09/26 02:08:16;;;;;;;1.25;0.90;;;;;;;;;;5058373;28;20105;-78
2022/09/26 02:10:45;;;;;;;1.25;1.05;;;;;;;;;;5058564;28;20074;-77
2022/09/26 02:13:24;;;;;;;2.75;1.15;;;;;;;;;;5041321;28;20397;-78
2022/09/26 02:15:56;;;;;;;3.38;0.90;;;;;;;;;;5058085;28;20465;-78
2022/09/26 02:18:42;;;;;;;2.78;1.10;;;;;;;;;;5041250;28;20039;-78
2022/09/26 02:21:16;;;;;;;1.42;0.98;;;;;;;;;;5041022;28;20029;-79
2022/09/26 02:23:41;;;;;;;1.73;1.02;;;;;;;;;;5058095;28;20475;-78
2022/09/26 02:26:07;;;;;;;1.17;1.00;;;;;;;;;;5041473;28;20040;-78
2022/09/26 02:28:32;;;;;;;2.20;0.95;;;;;;;;;;5057752;28;20028;-78
2022/09/26 02:31:00;;;;;;;5.22;1.27;;;;;;;;;;5057992;28;20495;-78
2022/09/26 02:33:27;;;;;;;1.10;1.00;;;;;;;;;;5075660;28;20033;-78
2022/09/26 02:35:55;;;;;;;2.75;1.05;;;;;;;;;;5040929;28;20081;-78
2022/09/26 02:38:22;;;;;;;6.35;1.27;;;;;;;;;;5058486;28;20028;-78
2022/09/26 02:41:00;;;;;;;2.72;1.30;;;;;;;;;;5057547;28;20049;-78
2022/09/26 02:43:32;;;;;;;1.10;1.00;;;;;;;;;;5057590;28;20047;-78
2022/09/26 02:46:16;;;;;;;3.47;1.15;;;;;;;;;;5057602;28;20398;-78
2022/09/26 02:48:59;;;;;;;3.42;0.90;;;;;;;;;;5075355;28;20071;-79
2022/09/26 02:51:33;;;;;;;3.03;0.90;;;;;;;;;;5040864;28;20028;-78
2022/09/26 02:54:17;;;;;;;2.85;1.17;;;;;;;;;;5057687;28;20016;-78
2022/09/26 02:57:04;;;;;;;4.82;1.10;;;;;;;;;;5075555;28;20435;-78
2022/09/26 03:00:03;;;;;;;6.15;1.10;;;;;;;;;;5056598;28;20039;-78
2022/09/26 03:03:24;;;;;;;2.75;1.30;;;;;;;;;;5040283;28;20049;-79
2022/09/26 03:05:53;;;;;;;4.43;1.00;;;;;;;;;;4977472;28;20069;-78
2022/09/26 03:08:26;;;;;;;1.75;0.93;;;;;;;;;;4993566;28;20046;-78
2022/09/26 03:10:54;;;;;;;3.67;1.30;;;;;;;;;;4961025;28;20038;-78
2022/09/26 03:13:20;;;;;;;1.73;1.10;;;;;;;;;;4977694;28;20042;-78
2022/09/26 03:15:50;;;;;;;2.78;1.00;;;;;;;;;;4977395;28;20077;-78
2022/09/26 03:18:19;;;;;;;2.22;1.00;;;;;;;;;;4993420;28;20030;-79
2022/09/26 03:20:45;;;;;;;2.75;1.20;;;;;;;;;;4993506;28;20043;-78
2022/09/26 03:23:11;;;;;;;1.88;1.23;;;;;;;;;;4977273;28;20053;-79
2022/09/26 03:25:37;;;;;;;1.58;1.17;;;;;;;;;;4976977;28;20487;-79
2022/09/26 03:28:02;;;;;;;3.05;1.27;;;;;;;;;;4977372;28;20510;-78
2022/09/26 03:30:31;;;;;;;2.25;1.40;;;;;;;;;;4993405;28;20035;-78
2022/09/26 03:32:56;;;;;;;2.70;1.30;;;;;;;;;;4993730;28;20042;-79
2022/09/26 03:35:22;;;;;;;2.75;1.27;;;;;;;;;;4977211;28;20386;-79
2022/09/26 03:37:47;;;;;;;4.53;1.20;;;;;;;;;;4976851;28;20034;-78
2022/09/26 03:40:13;;;;;;;2.70;1.38;;;;;;;;;;5042521;28;20052;-78
2022/09/26 03:42:38;;;;;;;2.67;1.10;;;;;;;;;;5039723;28;20028;-78
2022/09/26 03:45:07;;;;;;;5.35;1.27;;;;;;;;;;5023215;28;20445;-78
2022/09/26 03:47:33;;;;;;;5.30;1.40;;;;;;;;;;5039601;28;20094;-78
2022/09/26 03:49:59;;;;;;;6.13;1.10;;;;;;;;;;5056245;28;20016;-78
2022/09/26 03:52:24;;;;;;;1.45;1.10;;;;;;;;;;5056221;28;20029;-78
2022/09/26 03:54:50;;;;;;;2.47;1.10;;;;;;;;;;5074364;28;20111;-79
2022/09/26 03:57:16;;;;;;;7.45;1.40;;;;;;;;;;5039551;28;20029;-78
2022/09/26 03:59:42;;;;;;;3.60;1.20;;;;;;;;;;5039271;28;20035;-78
2022/09/26 04:02:08;;;;;;;7.30;1.38;;;;;;;;;;5053581;28;21547;-79
2022/09/26 04:04:34;;;;;;;3.72;1.38;;;;;;;;;;5019476;28;20043;-80
2022/09/26 04:07:00;;;;;;;9.95;1.58;;;;;;;;;;5035898;28;20021;-80
2022/09/26 04:09:25;;;;;;;3.47;1.50;;;;;;;;;;5035598;28;20108;-80
2022/09/26 04:11:52;;;;;;;2.15;1.30;;;;;;;;;;5036153;28;20103;-80
2022/09/26 04:14:18;;;;;;;1.63;1.15;;;;;;;;;;5036178;28;20028;-80
2022/09/26 04:16:44;;;;;;;2.95;1.40;;;;;;;;;;5019224;28;20033;-80
2022/09/26 04:19:11;;;;;;;1.70;1.38;;;;;;;;;;5035955;28;20498;-82
2022/09/26 04:21:39;;;;;;;6.40;1.70;;;;;;;;;;5019709;28;20128;-81
2022/09/26 04:24:13;;;;;;;5.85;1.88;;;;;;;;;;5036662;28;20029;-82
2022/09/26 04:26:38;;;;;;;;;;;;;;;;;;5036822;28;20040;-79
2022/09/26 04:29:04;;;;;;;5.65;1.95;;;;;;;;;;5053435;28;19917;-80
2022/09/26 04:31:29;;;;;;;6.03;2.03;;;;;;;;;;5053955;28;20032;-80
2022/09/26 04:33:55;;;;;;;5.43;1.88;;;;;;;;;;5036819;28;20105;-80
2022/09/26 04:36:20;;;;;;;6.28;1.90;;;;;;;;;;5055101;28;20159;-79
2022/09/26 04:38:46;;;;;;;6.80;1.60;;;;;;;;;;5054036;28;20477;-81
2022/09/26 04:41:17;;;;;;;7.18;1.83;;;;;;;;;;5036660;28;20029;-80
2022/09/26 04:43:43;;;;;;;4.20;1.80;;;;;;;;;;5019820;28;20049;-80
2022/09/26 04:46:21;;;;;;;5.45;1.55;;;;;;;;;;5036101;28;20049;-80
2022/09/26 04:48:51;;;;;;;5.03;1.80;;;;;;;;;;5003936;28;20040;-80
2022/09/26 04:51:18;;;;;;;10.65;1.92;;;;;;;;;;5036316;28;20043;-80
2022/09/26 04:53:43;;;;;;;7.88;2.10;;;;;;;;;;5019580;28;20058;-80
2022/09/26 04:56:10;;;;;;;13.00;3.22;;;;;;;;;;5003329;28;20029;-80
2022/09/26 04:58:36;;;;;;;14.50;3.58;;;;;;;;;;5036045;28;20024;-80
2022/09/26 05:01:04;;;;;;;16.15;3.95;;;;;;;;;;5037384;28;20031;-80
2022/09/26 05:03:29;;;;;;;20.98;3.83;;;;;;;;;;5033435;28;20049;-82
2022/09/26 05:05:55;;;;;;;17.33;3.80;;;;;;;;;;5073500;28;20435;-79
2022/09/26 05:08:22;;;;;;;16.00;3.47;;;;;;;;;;5055786;28;20029;-80
2022/09/26 05:10:55;;;;;;;15.60;2.95;;;;;;;;;;5073441;28;20035;-80
2022/09/26 05:13:26;;;;;;;18.83;3.05;;;;;;;;;;5056257;28;20071;-80
2022/09/26 05:15:54;;;;;;;14.05;3.60;;;;;;;;;;5055657;28;20020;-80
2022/09/26 05:18:21;;;;;;;12.93;3.20;;;;;;;;;;5073742;28;20090;-80
2022/09/26 05:20:47;;;;;;;7.88;2.17;;;;;;;;;;5054975;28;20063;-79
2022/09/26 05:26:18;;;;;;;7.93;2.70;;;;;;;;;;5038931;28;20051;-79
2022/09/26 05:28:42;;;;;;;8.93;2.08;;;;;;;;;;5073703;28;20150;-79
2022/09/26 05:31:08;;;;;;;4.63;1.85;;;;;;;;;;5074546;28;20495;-78
2022/09/26 05:33:36;;;;;;;7.15;2.03;;;;;;;;;;5058716;28;20036;-78
2022/09/26 05:36:02;;;;;;;7.65;2.15;;;;;;;;;;5074744;28;20094;-80
2022/09/26 05:38:27;;;;;;;7.22;2.30;;;;;;;;;;5056145;28;20480;-79
2022/09/26 05:40:55;;;;;;;3.58;2.08;;;;;;;;;;5073340;28;20036;-78
2022/09/26 05:43:26;;;;;;;7.07;2.25;;;;;;;;;;5038875;28;20101;-80
2022/09/26 05:45:55;;;;;;;5.78;1.73;;;;;;;;;;5055589;28;20033;-78
2022/09/26 05:48:20;;;;;;;7.22;1.80;;;;;;;;;;5055388;28;20598;-78
2022/09/26 05:50:47;;;;;;;6.20;1.67;;;;;;;;;;5072922;28;20052;-78
2022/09/26 05:53:12;;;;;;;7.25;1.73;;;;;;;;;;5073387;28;20029;-78
2022/09/26 05:55:38;;;;;;;5.95;1.88;;;;;;;;;;5073929;28;20476;-78
2022/09/26 05:58:04;;;;;;;7.47;1.40;;;;;;;;;;5055221;28;20028;-78
2022/09/26 06:00:30;;;;;;;3.55;1.63;;;;;;;;;;5038704;28;20439;-79
2022/09/26 06:02:57;;;;;;;3.97;1.48;;;;;;;;;;5073208;28;20044;-79
2022/09/26 06:05:25;;;;;;;2.78;1.33;;;;;;;;;;5073072;28;20024;-79
2022/09/26 06:07:51;;;;;;;5.10;1.20;;;;;;;;;;5073016;28;20033;-79
2022/09/26 06:10:18;;;;;;;4.10;1.73;;;;;;;;;;5055033;28;20357;-79
2022/09/26 06:12:44;;;;;;;3.50;1.30;;;;;;;;;;5073482;28;20036;-78
2022/09/26 06:15:09;;;;;;;6.72;1.80;;;;;;;;;;5072910;28;20078;-78
2022/09/26 06:17:35;;;;;;;2.80;1.42;;;;;;;;;;5074299;28;20066;-79
2022/09/26 06:20:01;;;;;;;4.15;1.40;;;;;;;;;;5055911;28;20052;-78
2022/09/26 06:22:27;;;;;;;2.72;1.52;;;;;;;;;;5055113;28;20036;-79
2022/09/26 06:24:53;;;;;;;2.70;1.40;;;;;;;;;;5073013;28;20032;-79
2022/09/26 06:27:19;;;;;;;2.97;1.30;;;;;;;;;;5055235;28;20034;-79
2022/09/26 06:29:44;;;;;;;2.78;1.30;;;;;;;;;;5054962;28;20369;-78
2022/09/26 06:32:10;;;;;;;5.25;1.20;;;;;;;;;;5073799;28;20090;-78
2022/09/26 06:34:35;;;;;;;1.95;1.27;;;;;;;;;;5058599;28;20040;-79
2022/09/26 06:37:00;;;;;;;3.20;1.45;;;;;;;;;;5058947;28;20032;-79
2022/09/26 06:39:34;;;;;;;3.38;1.20;;;;;;;;;;5058569;28;20119;-79
2022/09/26 06:42:04;;;;;;;7.57;1.60;;;;;;;;;;5060241;28;20055;-79
2022/09/26 06:44:30;;;;;;;1.55;1.08;;;;;;;;;;5058906;28;20040;-79
2022/09/26 06:46:57;;;;;;;5.15;1.30;;;;;;;;;;5076192;28;20044;-80
2022/09/26 06:49:23;;;;;;;4.38;1.20;;;;;;;;;;5058445;28;20024;-79
2022/09/26 06:51:48;;;;;;;2.80;1.52;;;;;;;;;;5076045;28;20082;-79
2022/09/26 06:54:14;;;;;;;1.38;1.10;;;;;;;;;;5076322;28;20063;-79
2022/09/26 06:56:39;;;;;;;2.78;1.10;;;;;;;;;;5077225;28;20043;-79
2022/09/26 06:59:04;;;;;;;4.32;1.40;;;;;;;;;;5075876;28;20066;-79
2022/09/26 07:01:30;;;;;;;4.60;1.20;;;;;;;;;;5076584;28;20060;-79
2022/09/26 07:03:55;;;;;;;3.92;1.20;;;;;;;;;;5057953;28;20093;-79
2022/09/26 07:06:21;;;;;;;3.17;1.20;;;;;;;;;;5075758;28;20029;-79
2022/09/26 07:08:46;;;;;;;2.53;1.58;;;;;;;;;;5075780;28;20032;-79
2022/09/26 07:11:12;;;;;;;3.47;1.20;;;;;;;;;;5058015;28;20028;-79
2022/09/26 07:13:38;;;;;;;2.13;1.20;;;;;;;;;;5076398;28;20032;-79
2022/09/26 07:16:04;;;;;;;3.30;1.13;;;;;;;;;;5058250;28;20033;-79
2022/09/26 07:18:29;;;;;;;1.95;1.20;;;;;;;;;;5075765;28;20389;-79
2022/09/26 07:20:55;;;;;;;2.33;1.20;;;;;;;;;;5041214;28;20054;-79
2022/09/26 07:23:20;;;;;;;1.90;1.10;;;;;;;;;;5060269;28;20515;-79
2022/09/26 07:25:46;;;;;;;2.33;1.13;;;;;;;;;;5057841;28;20374;-80
2022/09/26 07:28:12;;;;;;;1.20;1.10;;;;;;;;;;5057720;28;20031;-81
2022/09/26 07:30:37;;;;;;;2.67;1.30;;;;;;;;;;5041007;28;20024;-79
2022/09/26 07:33:03;;;;;;;3.88;1.38;;;;;;;;;;5057433;28;20584;-81
2022/09/26 07:35:34;;;;;;;2.33;1.20;;;;;;;;;;5057624;28;20032;-80
2022/09/26 07:38:00;;;;;;;3.47;1.33;;;;;;;;;;5076293;28;20055;-80
2022/09/26 07:40:26;;;;;;;2.60;1.35;;;;;;;;;;5057382;28;20048;-78
2022/09/26 07:42:52;;;;;;;1.73;1.20;;;;;;;;;;5057491;28;20068;-78
2022/09/26 07:50:10;;;;;;;3.28;1.25;;;;;;;;;;5040259;28;20035;-79
2022/09/26 07:50:54;;;;;;;3.83;1.40;;;;;;;;;;5075302;28;20389;-80
2022/09/26 07:53:20;;;;;;;4.30;1.25;;;;;;;;;;5057142;28;20020;-80
2022/09/26 07:56:04;;;;;;;3.05;1.60;;;;;;;;;;5057549;28;20024;-80
2022/09/26 07:58:30;;;;;;;2.08;1.30;;;;;;;;;;5059988;28;20032;-79
2022/09/26 08:00:56;;;;;;;4.40;1.55;;;;;;;;;;5040762;28;20025;-79
2022/09/26 08:03:25;;;;;;;3.70;1.20;;;;;;;;;;5040201;28;20515;-78
2022/09/26 08:05:52;;;;;;;2.67;1.33;;;;;;;;;;5075076;28;20103;-80
2022/09/26 08:08:17;;;;;;;1.63;1.30;;;;;;;;;;5024102;28;20029;-80
2022/09/26 08:10:43;;;;;;;5.40;1.65;;;;;;;;;;5056872;28;20496;-79
2022/09/26 08:13:09;;;;;;;5.18;1.27;;;;;;;;;;5057166;28;20032;-79
2022/09/26 08:15:34;;;;;;;5.85;1.73;;;;;;;;;;5075118;28;20479;-79
2022/09/26 08:17:59;;;;;;;3.70;2.00;;;;;;;;;;5056956;28;20090;-79
2022/09/26 08:20:25;;;;;;;6.65;1.50;;;;;;;;;;5056453;28;20031;-79
2022/09/26 08:22:54;;;;;;;3.85;1.60;;;;;;;;;;5039923;28;20068;-79
2022/09/26 08:25:19;;;;;;;1.48;1.08;;;;;;;;;;5040154;28;20396;-79
2022/09/26 08:27:47;;;;;;;4.18;1.50;;;;;;;;;;5074314;28;20050;-79
2022/09/26 08:30:13;;;;;;;3.25;1.40;;;;;;;;;;5074550;28;20047;-78
2022/09/26 08:32:39;;;;;;;10.68;1.60;;;;;;;;;;5057065;28;20016;-79
2022/09/26 08:35:05;;;;;;;2.65;1.35;;;;;;;;;;5039480;28;20369;-79
2022/09/26 08:37:31;;;;;;;5.28;1.63;;;;;;;;;;5056347;28;20024;-80
2022/09/26 08:39:56;;;;;;;2.78;1.40;;;;;;;;;;5073998;28;20078;-79
2022/09/26 08:42:54;;;;;;;4.30;1.83;;;;;;;;;;5039992;28;20028;-79
2022/09/26 08:48:43;;;;;;;5.93;1.70;;;;;;;;;;5059119;28;20039;-79
2022/09/26 08:51:45;;;;;;;3.05;1.50;;;;;;;;;;5055664;28;20116;-80
2022/09/26 08:54:14;;;;;;;2.70;1.50;;;;;;;;;;4996056;28;20042;-81
2022/09/26 08:56:47;;;;;;;2.00;1.35;;;;;;;;;;4996949;28;20046;-81
2022/09/26 08:59:24;;;;;;;7.85;1.80;;;;;;;;;;4979434;28;20567;-78
2022/09/26 09:01:51;;;;;;;9.25;1.60;;;;;;;;;;4995531;28;20069;-79
2022/09/26 09:04:23;;;;;;;7.15;1.77;;;;;;;;;;4979346;28;20028;-79
2022/09/26 09:06:55;;;;;;;3.20;1.52;;;;;;;;;;4995671;28;20544;-80
2022/09/26 09:09:20;;;;;;;11.23;1.50;;;;;;;;;;4995717;28;20121;-80
2022/09/26 09:12:16;;;;;;;9.93;2.83;;;;;;;;;;4995867;28;20449;-80
2022/09/26 09:15:10;;;;;;;5.85;1.80;;;;;;;;;;5004133;28;20030;-79
2022/09/26 09:18:04;;;;;;;5.15;1.50;;;;;;;;;;5011772;28;20404;-80
2022/09/26 09:20:51;;;;;;;3.67;1.40;;;;;;;;;;5012674;28;20030;-84
2022/09/26 09:23:50;;;;;;;10.70;1.60;;;;;;;;;;4979355;28;20038;-82
2022/09/26 09:26:35;;;;;;;5.40;1.42;;;;;;;;;;4992275;28;20041;-82
2022/09/26 09:29:15;;;;;;;4.50;1.65;;;;;;;;;;5047437;28;20073;-81
2022/09/26 09:31:42;;;;;;;4.68;1.38;;;;;;;;;;5073177;28;20056;-80
2022/09/26 09:34:24;;;;;;;6.32;1.65;;;;;;;;;;5073412;28;20032;-78
2022/09/26 09:37:03;;;;;;;2.22;1.20;;;;;;;;;;5055746;28;20032;-81
2022/09/26 09:39:38;;;;;;;3.63;1.55;;;;;;;;;;5055261;28;20028;-79
2022/09/26 09:42:27;;;;;;;5.88;1.52;;;;;;;;;;5055431;28;20611;-79
2022/09/26 09:44:59;;;;;;;7.00;1.80;;;;;;;;;;5055817;28;20107;-78
2022/09/26 09:47:26;;;;;;;5.65;1.63;;;;;;;;;;5073497;28;20029;-78
2022/09/26 09:49:52;;;;;;;4.20;1.83;;;;;;;;;;5055559;28;20452;-80
2022/09/26 09:52:20;;;;;;;2.58;1.40;;;;;;;;;;5055145;28;20028;-79
2022/09/26 09:54:55;;;;;;;8.48;1.80;;;;;;;;;;5055056;28;20059;-79
2022/09/26 09:57:32;;;;;;;3.80;1.70;;;;;;;;;;5039284;28;20031;-80
2022/09/26 10:00:07;;;;;;;4.43;1.52;;;;;;;;;;5073057;28;20025;-79
2022/09/26 10:02:51;;;;;;;6.05;1.73;;;;;;;;;;5067067;28;20408;-80
2022/09/26 10:05:22;;;;;;;2.25;1.63;;;;;;;;;;5035632;28;20398;-81
2022/09/26 10:07:49;;;;;;;3.30;2.03;;;;;;;;;;5055173;28;20024;-79
2022/09/26 10:10:41;;;;;;;2.47;1.42;;;;;;;;;;5022563;28;20559;-81
2022/09/26 10:13:10;;;;;;;1.80;1.40;;;;;;;;;;5057276;28;20029;-81
2022/09/26 10:15:42;;;;;;;3.20;1.38;;;;;;;;;;5022880;28;20025;-80
2022/09/26 10:18:17;;;;;;;4.47;1.75;;;;;;;;;;5039437;28;20071;-80
2022/09/26 10:20:54;;;;;;;1.63;1.30;;;;;;;;;;5038904;28;20017;-80
2022/09/26 10:23:25;;;;;;;7.30;1.48;;;;;;;;;;5039232;28;20025;-79
2022/09/26 10:25:54;;;;;;;2.88;1.30;;;;;;;;;;5057295;28;20037;-80
2022/09/26 10:28:28;;;;;;;9.30;1.63;;;;;;;;;;5039195;28;20473;-80
2022/09/26 10:31:00;;;;;;;3.15;1.60;;;;;;;;;;5022253;28;20032;-81
2022/09/26 10:33:29;;;;;;;3.08;1.40;;;;;;;;;;5038623;28;20155;-80
2022/09/26 10:36:03;;;;;;;3.25;1.60;;;;;;;;;;5039079;28;20496;-80
2022/09/26 10:38:29;;;;;;;5.60;1.55;;;;;;;;;;5022591;28;20082;-80
2022/09/26 10:41:00;;;;;;;3.85;1.58;;;;;;;;;;5038388;28;20116;-82
2022/09/26 10:43:29;;;;;;;5.30;1.48;;;;;;;;;;5038499;28;20029;-80
2022/09/26 10:46:00;;;;;;;3.70;1.23;;;;;;;;;;5038688;28;20025;-81
2022/09/26 10:48:46;;;;;;;6.63;1.52;;;;;;;;;;5038408;28;20065;-81
2022/09/26 10:51:29;;;;;;;6.93;1.48;;;;;;;;;;5056163;28;20500;-80
2022/09/26 10:54:02;;;;;;;5.95;1.75;;;;;;;;;;5038633;28;20024;-80
2022/09/26 10:56:31;;;;;;;3.88;1.40;;;;;;;;;;5022466;28;20036;-80
2022/09/26 10:58:58;;;;;;;3.58;1.55;;;;;;;;;;5038205;28;20496;-79
2022/09/26 11:01:26;;;;;;;2.60;1.50;;;;;;;;;;5021645;28;20036;-80
2022/09/26 11:03:57;;;;;;;7.32;1.20;;;;;;;;;;5055145;28;20072;-81
2022/09/26 11:06:39;;;;;;;6.15;1.70;;;;;;;;;;5058937;28;20428;-81
2022/09/26 11:09:05;;;;;;;2.67;1.40;;;;;;;;;;5058267;28;20115;-81
2022/09/26 11:11:36;;;;;;;4.18;1.40;;;;;;;;;;5075797;28;20032;-80
2022/09/26 11:14:06;;;;;;;6.93;1.50;;;;;;;;;;5076048;28;20108;-80
2022/09/26 11:16:48;;;;;;;9.07;1.50;;;;;;;;;;5057814;28;20160;-79
2022/09/26 11:19:25;;;;;;;4.22;1.30;;;;;;;;;;5056819;28;20038;-82
2022/09/26 11:22:05;;;;;;;9.23;1.63;;;;;;;;;;5058172;28;20031;-82
2022/09/26 11:24:41;;;;;;;6.18;1.73;;;;;;;;;;5041338;28;20472;-82
2022/09/26 11:27:30;;;;;;;4.35;1.35;;;;;;;;;;5057860;28;20025;-81
2022/09/26 11:30:18;;;;;;;2.13;1.10;;;;;;;;;;5075834;28;20020;-80
2022/09/26 11:32:46;;;;;;;7.68;1.35;;;;;;;;;;5058713;28;20032;-80
2022/09/26 11:35:13;;;;;;;3.22;1.23;;;;;;;;;;5057429;28;20396;-80
2022/09/26 11:37:42;;;;;;;5.97;1.52;;;;;;;;;;5075673;28;20066;-83
2022/09/26 11:40:13;;;;;;;5.53;1.67;;;;;;;;;;5075305;28;20024;-81
2022/09/26 11:43:16;;;;;;;8.48;1.40;;;;;;;;;;5057294;28;20044;-81
2022/09/26 11:46:13;;;;;;;3.67;1.30;;;;;;;;;;5057150;28;20028;-80
2022/09/26 11:48:45;;;;;;;6.32;1.48;;;;;;;;;;5075122;28;20025;-81
2022/09/26 11:51:18;;;;;;;11.82;1.50;;;;;;;;;;5075274;28;20434;-82
2022/09/26 11:54:05;;;;;;;4.68;1.50;;;;;;;;;;5075352;28;20028;-81
2022/09/26 11:56:45;;;;;;;5.25;1.38;;;;;;;;;;5057349;28;20032;-79
2022/09/26 11:59:23;;;;;;;2.72;1.25;;;;;;;;;;5075139;28;20423;-81
2022/09/26 12:02:30;;;;;;;4.80;1.15;;;;;;;;;;5056965;28;20442;-81
2022/09/26 12:05:12;;;;;;;2.13;1.13;;;;;;;;;;5074778;28;20016;-78
2022/09/26 12:07:49;;;;;;;6.75;1.35;;;;;;;;;;5065619;28;20055;-79
2022/09/26 12:10:30;;;;;;;3.47;1.42;;;;;;;;;;5070129;28;20045;-80
2022/09/26 12:13:54;;;;;;;5.35;1.70;;;;;;;;;;5036634;28;20388;-80
2022/09/26 12:16:25;;;;;;;1.77;1.10;;;;;;;;;;4993158;28;20557;-80
2022/09/26 12:18:53;;;;;;;6.35;1.50;;;;;;;;;;5012776;28;20034;-80
2022/09/26 12:21:33;;;;;;;3.05;1.30;;;;;;;;;;5009230;28;20084;-79
2022/09/26 12:24:26;;;;;;;4.80;1.30;;;;;;;;;;5012633;28;20034;-80
2022/09/26 12:27:05;;;;;;;4.22;1.00;;;;;;;;;;4996172;28;20042;-85
2022/09/26 12:29:45;;;;;;;7.72;1.88;;;;;;;;;;4996036;28;20022;-83
2022/09/26 12:32:26;;;;;;;4.68;0.90;;;;;;;;;;5012595;28;20025;-82
2022/09/26 12:35:06;;;;;;;3.85;1.30;;;;;;;;;;5012562;28;20177;-81
2022/09/26 12:37:45;;;;;;;3.42;1.10;;;;;;;;;;5012698;28;20029;-83
2022/09/26 12:40:23;;;;;;;5.25;1.70;;;;;;;;;;4995972;28;20066;-84
2022/09/26 12:43:03;;;;;;;8.35;2.70;;;;;;;;;;5012429;28;20038;-84
2022/09/26 12:45:43;;;;;;;11.02;3.60;;;;;;;;;;5012479;28;20041;-83
2022/09/26 12:48:34;;;;;;;8.10;4.75;;;;;;;;;;5054297;28;20096;-82
2022/09/26 12:51:15;;;;;;;11.48;4.50;;;;;;;;;;5037690;28;20079;-82
2022/09/26 12:54:11;;;;;;;11.65;4.53;;;;;;;;;;5054702;28;20059;-83
2022/09/26 12:56:55;;;;;;;10.63;5.00;;;;;;;;;;5037358;28;20064;-81
2022/09/26 12:59:51;;;;;;;12.32;5.20;;;;;;;;;;5054436;28;20469;-82
2022/09/26 13:02:47;;;;;;;10.07;4.97;;;;;;;;;;5055865;28;20045;-80
2022/09/26 13:05:21;;;;;;;9.38;4.20;;;;;;;;;;5073983;28;20016;-81
2022/09/26 13:08:11;;;;;;;10.07;4.80;;;;;;;;;;5073865;28;20376;-81
2022/09/26 13:10:37;;;;;;;8.20;4.90;;;;;;;;;;5055763;28;20476;-82
2022/09/26 13:13:05;;;;;;;12.20;4.50;;;;;;;;;;5055590;28;20107;-81
2022/09/26 13:15:57;;;;;;;8.45;4.20;;;;;;;;;;5055519;28;20024;-83
2022/09/26 13:18:36;;;;;;;7.43;4.40;;;;;;;;;;5055687;28;20430;-82
2022/09/26 13:21:07;;;;;;;7.57;4.00;;;;;;;;;;5055577;28;20473;-81
2022/09/26 13:23:37;;;;;;;8.13;3.85;;;;;;;;;;5055571;28;20028;-82
2022/09/26 13:26:08;;;;;;;6.75;3.85;;;;;;;;;;5055606;28;20059;-81
2022/09/26 13:28:41;;;;;;;7.03;4.00;;;;;;;;;;5038842;28;20516;-81
2022/09/26 13:31:15;;;;;;;7.47;3.92;;;;;;;;;;5074031;28;20035;-81
2022/09/26 13:33:48;;;;;;;9.07;4.22;;;;;;;;;;5055940;28;20469;-80
2022/09/26 13:36:16;;;;;;;5.72;3.58;;;;;;;;;;5055867;28;20051;-81
2022/09/26 13:39:07;;;;;;;8.00;4.32;;;;;;;;;;5038852;28;20029;-81
2022/09/26 13:42:00;;;;;;;8.35;3.83;;;;;;;;;;5050868;28;20043;-82
2022/09/26 13:44:48;;;;;;;9.32;4.07;;;;;;;;;;5073473;28;20533;-81
2022/09/26 13:47:33;;;;;;;10.75;4.10;;;;;;;;;;5041181;28;20044;-81
2022/09/26 13:50:04;;;;;;;;;;;;;;;;;;5073852;28;20033;-81
2022/09/26 13:52:51;;;;;;;7.00;3.97;;;;;;;;;;5038549;28;19915;-81
2022/09/26 13:55:20;;;;;;;8.75;3.72;;;;;;;;;;5056255;28;20056;-82
2022/09/26 13:57:51;;;;;;;7.93;3.45;;;;;;;;;;5038544;28;20029;-81
2022/09/26 14:00:29;;;;;;;8.80;4.05;;;;;;;;;;5055685;28;20028;-81
2022/09/26 14:03:09;;;;;;;7.25;4.45;;;;;;;;;;5073004;28;20047;-82
2022/09/26 14:05:40;;;;;;;6.63;3.50;;;;;;;;;;5073602;28;20031;-81
2022/09/26 14:11:29;;;;;;;8.20;3.72;;;;;;;;;;5074831;28;20132;-84
2022/09/26 14:14:22;;;;;;;9.98;3.90;;;;;;;;;;5039515;28;20028;-82
2022/09/26 14:16:48;;;;;;;10.98;4.18;;;;;;;;;;5055121;28;20495;-82
2022/09/26 14:19:27;;;;;;;10.90;4.18;;;;;;;;;;5072895;28;20032;-82
2022/09/26 14:22:19;;;;;;;7.57;3.75;;;;;;;;;;5055190;28;20038;-82
2022/09/26 14:24:45;;;;;;;8.65;4.13;;;;;;;;;;5072788;28;20381;-83
2022/09/26 14:27:11;;;;;;;9.77;4.43;;;;;;;;;;5054961;28;20495;-82
2022/09/26 14:29:41;;;;;;;7.57;4.28;;;;;;;;;;5072756;28;20021;-85
2022/09/26 14:32:07;;;;;;;8.70;4.32;;;;;;;;;;5054773;28;20028;-83
2022/09/26 14:34:46;;;;;;;12.65;3.90;;;;;;;;;;5072886;28;20047;-84
2022/09/26 14:37:23;;;;;;;9.43;4.30;;;;;;;;;;5072789;28;20032;-84
2022/09/26 14:40:26;;;;;;;7.88;4.22;;;;;;;;;;5072882;28;20107;-82
2022/09/26 14:42:57;;;;;;;11.18;3.88;;;;;;;;;;5054772;28;20508;-84
2022/09/26 14:45:46;;;;;;;10.63;3.85;;;;;;;;;;5054905;28;20017;-83
2022/09/26 14:48:25;;;;;;;8.02;3.88;;;;;;;;;;5061621;28;20033;-83
2022/09/26 14:50:53;;;;;;;9.68;3.53;;;;;;;;;;5072920;28;20104;-82
2022/09/26 14:53:37;;;;;;;6.68;3.75;;;;;;;;;;5072502;28;20021;-84
2022/09/26 14:56:07;;;;;;;5.63;3.70;;;;;;;;;;5058363;28;20119;-84
2022/09/26 14:58:35;;;;;;;7.32;3.17;;;;;;;;;;5059882;28;20020;-86
2022/09/26 15:01:04;;;;;;;13.90;3.30;;;;;;;;;;5078568;28;20024;-85
2022/09/26 15:03:31;;;;;;;7.30;3.40;;;;;;;;;;5060273;28;20062;-84
2022/09/26 15:05:58;;;;;;;7.88;3.45;;;;;;;;;;5044357;28;20439;-81
2022/09/26 15:08:29;;;;;;;4.38;3.00;;;;;;;;;;5059746;28;20055;-86
2022/09/26 15:10:59;;;;;;;21.80;3.50;;;;;;;;;;5060587;28;20362;-85
2022/09/26 15:13:43;;;;;;;12.93;3.95;;;;;;;;;;5078192;28;20032;-82
2022/09/26 15:16:08;;;;;;;19.98;3.95;;;;;;;;;;5043542;28;20090;-81
2022/09/26 15:18:39;;;;;;;21.10;3.20;;;;;;;;;;5078352;28;20488;-81
2022/09/26 15:21:09;;;;;;;11.60;3.33;;;;;;;;;;5042686;28;20028;-80
2022/09/26 15:23:45;;;;;;;9.18;3.03;;;;;;;;;;5077204;28;20024;-81
2022/09/26 15:26:11;;;;;;;12.93;2.83;;;;;;;;;;5043944;28;20028;-80
2022/09/26 15:28:37;;;;;;;7.15;3.20;;;;;;;;;;5043589;28;20028;-82